aviador You're here:

DAUH Decoded Metar

HASSI-MESSAOUD in ALGERIA
Report Time2018-01-21 18:00:00
UTC Time2018-01-21 18:26:57
Flight Rules vfr VFR
Wind190° at 03 kt
W.Decomp.*RWY 18: 3.0 kt HW 0.5 kt RCW
W.Rank190° ranks 33
Current wind is below 190° avg. (8.7)
Visibility9999 m
Phenomena:N/A
Clouds:N/A
Expected CloudBase > 5,200 ft AGL from Temp-Dew spread
CeilingNone
Temp16°C (ISA +2)
Dew Point03°C (42% RH)
AAT13.4°C
QNH1022 hPa
Density Alt495 ft
Elevation466 ft
Report Wrong Elevation
Raw Report
DAUH 211800Z 19003KT CAVOK 16/03 Q1022=

Extra information for DAUH:More info

Metar Taf Metar & Taf Last 4 Metars F.Rules Stats Wind Profile Meteogram Temp Stats Airport Information Weather charts Add Link Nearby VenuesMetar ALERT Operation Metar Decoded Social comments